Airfield :
LOGIN :

Register | Disclaimer

   EN    FR    IT 

 










Legend :    VFR   Marginal VFR   IFR   Intensive IFR   Very Intensive IFR
Visi :
Ceiling :
>= 8 km
>= 3000ft
5 to 8 km
1000 to 3000 ft
1500m to 5 km
500 to 1000 ft
800 to 1500m
200 to 500 ft
< 800m
< 200 ft
Symbols :   Thunderstorms  Fog  Heavy snow  Heavy precipitations  Wind > 20 kt
SIGMETs :     Misc.  Thunderstorms  Icing  Turbulence  Mountain Waves  Volcanic Ashes







- Airport Elevation : 215 ft
- IATA code : ABZ
- Download approach charts


EGPD - Aberdeen / Dyce

CURRENT METAR :
  • 210820Z 16007KT 120V190 9999 BKN009 14/12 Q1016 BECMG BKN013

EXPIRED METARs :
  • 210750Z 17009KT 130V210 9999 BKN008 13/12 Q1017 TEMPO SCT010
  • 210720Z 15007KT 120V180 9999 BKN008 13/12 Q1017 TEMPO SCT009
  • 210650Z 16006KT 120V180 9999 SCT008 12/11 Q1017
  • 210620Z 16009KT 9999 SCT008 12/11 Q1017
  • 210550Z 16010KT 9999 SCT008 12/11 Q1017 TEMPO BKN006

TAF TAF EGPD
Valid from the 21 at 06:00 until the 22 at 06:00 UTC


210455Z 2106/2206 15009KT 9999 SCT008
TEMPO 2106/2110 6000 BKN005
PROB30
TEMPO 2110/2115 16015G25KT
TEMPO 2121/2206 6000
PROB40
TEMPO 2122/2206 BKN008
No reported NOTAMs for that airfield.



MET'MAP, your aeronautical weather chart ! - Copyright ORBIFLY December 2007 - Disclaimer

ORBIFLY MET'MAP TEAM :

Programming & Development : Alexandra Zaïnal
Concept & Development : Baudouin d'Aumeries
Co-Development & Prog : Marc-Olivier Méhu
Technical & hardware support : Manuel Goepfert

Contact : metmap@orbifly.com




SOURCES & CREDITS :

   NOAA